sensor_id;sensor_type;location;lat;lon;timestamp;temperature;humidity
3005;DHT22;1512;51.486;6.610;2023-04-15T00:00:59;9.20;1.00
3005;DHT22;1512;51.486;6.610;2023-04-15T00:05:08;9.20;1.00
3005;DHT22;1512;51.486;6.610;2023-04-15T00:09:17;9.20;1.00
3005;DHT22;1512;51.486;6.610;2023-04-15T00:13:26;9.20;1.00
3005;DHT22;1512;51.486;6.610;2023-04-15T00:17:35;9.30;1.00
3005;DHT22;1512;51.486;6.610;2023-04-15T00:21:45;9.30;1.00
3005;DHT22;1512;51.486;6.610;2023-04-15T00:25:54;9.30;1.00
3005;DHT22;1512;51.486;6.610;2023-04-15T00:30:03;9.20;1.00
3005;DHT22;1512;51.486;6.610;2023-04-15T00:34:12;9.20;1.00
3005;DHT22;1512;51.486;6.610;2023-04-15T00:38:21;9.10;1.00
3005;DHT22;1512;51.486;6.610;2023-04-15T00:42:30;9.10;1.00
3005;DHT22;1512;51.486;6.610;2023-04-15T00:46:38;9.10;1.00
3005;DHT22;1512;51.486;6.610;2023-04-15T00:50:47;9.10;1.00
3005;DHT22;1512;51.486;6.610;2023-04-15T00:54:56;8.90;1.00
3005;DHT22;1512;51.486;6.610;2023-04-15T00:59:05;8.90;1.00
3005;DHT22;1512;51.486;6.610;2023-04-15T01:03:14;8.80;1.00
3005;DHT22;1512;51.486;6.610;2023-04-15T01:07:23;8.80;1.00
3005;DHT22;1512;51.486;6.610;2023-04-15T01:11:32;8.80;1.00
3005;DHT22;1512;51.486;6.610;2023-04-15T01:15:43;8.80;1.00
3005;DHT22;1512;51.486;6.610;2023-04-15T01:19:58;8.80;1.00
3005;DHT22;1512;51.486;6.610;2023-04-15T01:24:09;8.80;1.00
3005;DHT22;1512;51.486;6.610;2023-04-15T01:28:17;8.70;1.00
3005;DHT22;1512;51.486;6.610;2023-04-15T01:32:27;8.70;1.00
3005;DHT22;1512;51.486;6.610;2023-04-15T01:36:38;8.80;1.00
3005;DHT22;1512;51.486;6.610;2023-04-15T01:40:47;8.80;1.00
3005;DHT22;1512;51.486;6.610;2023-04-15T01:44:56;8.80;1.00
3005;DHT22;1512;51.486;6.610;2023-04-15T01:49:05;8.70;1.00
3005;DHT22;1512;51.486;6.610;2023-04-15T01:53:14;8.70;1.00
3005;DHT22;1512;51.486;6.610;2023-04-15T01:57:23;8.70;1.00
3005;DHT22;1512;51.486;6.610;2023-04-15T02:01:32;8.70;1.00
3005;DHT22;1512;51.486;6.610;2023-04-15T02:05:41;8.60;1.00
3005;DHT22;1512;51.486;6.610;2023-04-15T02:09:50;8.60;1.00
3005;DHT22;1512;51.486;6.610;2023-04-15T02:13:59;8.60;1.00
3005;DHT22;1512;51.486;6.610;2023-04-15T02:18:07;8.50;1.00
3005;DHT22;1512;51.486;6.610;2023-04-15T02:22:16;8.50;1.00
3005;DHT22;1512;51.486;6.610;2023-04-15T02:26:25;8.50;1.00
3005;DHT22;1512;51.486;6.610;2023-04-15T02:30:34;8.50;1.00
3005;DHT22;1512;51.486;6.610;2023-04-15T02:34:42;8.50;1.00
3005;DHT22;1512;51.486;6.610;2023-04-15T02:38:51;8.40;1.00
3005;DHT22;1512;51.486;6.610;2023-04-15T02:43:00;8.40;1.00
3005;DHT22;1512;51.486;6.610;2023-04-15T02:47:08;8.40;1.00
3005;DHT22;1512;51.486;6.610;2023-04-15T02:51:19;8.30;1.00
3005;DHT22;1512;51.486;6.610;2023-04-15T02:55:29;8.30;1.00
3005;DHT22;1512;51.486;6.610;2023-04-15T02:59:38;8.20;1.00
3005;DHT22;1512;51.486;6.610;2023-04-15T03:03:46;8.10;1.00
3005;DHT22;1512;51.486;6.610;2023-04-15T03:07:55;8.10;1.00
3005;DHT22;1512;51.486;6.610;2023-04-15T03:12:04;8.00;1.00
3005;DHT22;1512;51.486;6.610;2023-04-15T03:16:12;7.90;1.00
3005;DHT22;1512;51.486;6.610;2023-04-15T03:20:21;7.90;1.00
3005;DHT22;1512;51.486;6.610;2023-04-15T03:24:30;7.80;1.00
3005;DHT22;1512;51.486;6.610;2023-04-15T03:28:39;7.80;1.00
3005;DHT22;1512;51.486;6.610;2023-04-15T03:33:07;7.80;1.00
3005;DHT22;1512;51.486;6.610;2023-04-15T03:37:16;7.80;1.00
3005;DHT22;1512;51.486;6.610;2023-04-15T03:41:24;7.80;1.00
3005;DHT22;1512;51.486;6.610;2023-04-15T03:45:33;7.80;1.00
3005;DHT22;1512;51.486;6.610;2023-04-15T03:49:42;7.80;1.00
3005;DHT22;1512;51.486;6.610;2023-04-15T03:53:51;7.80;1.00
3005;DHT22;1512;51.486;6.610;2023-04-15T03:58:00;7.70;1.00
3005;DHT22;1512;51.486;6.610;2023-04-15T04:02:08;7.70;1.00
3005;DHT22;1512;51.486;6.610;2023-04-15T04:06:17;7.80;1.00
3005;DHT22;1512;51.486;6.610;2023-04-15T04:10:26;7.70;1.00
3005;DHT22;1512;51.486;6.610;2023-04-15T04:14:35;7.80;1.00
3005;DHT22;1512;51.486;6.610;2023-04-15T04:18:43;7.70;1.00
3005;DHT22;1512;51.486;6.610;2023-04-15T04:22:52;7.70;1.00
3005;DHT22;1512;51.486;6.610;2023-04-15T04:27:01;7.80;1.00
3005;DHT22;1512;51.486;6.610;2023-04-15T04:31:09;7.70;1.00
3005;DHT22;1512;51.486;6.610;2023-04-15T04:35:21;7.60;1.00
3005;DHT22;1512;51.486;6.610;2023-04-15T04:39:31;7.60;1.00
3005;DHT22;1512;51.486;6.610;2023-04-15T04:43:40;7.60;1.00
3005;DHT22;1512;51.486;6.610;2023-04-15T04:47:49;7.60;1.00
3005;DHT22;1512;51.486;6.610;2023-04-15T04:51:58;7.60;1.00
3005;DHT22;1512;51.486;6.610;2023-04-15T04:56:07;7.60;1.00
3005;DHT22;1512;51.486;6.610;2023-04-15T05:00:16;7.70;1.00
3005;DHT22;1512;51.486;6.610;2023-04-15T05:04:24;7.60;1.00
3005;DHT22;1512;51.486;6.610;2023-04-15T05:08:33;7.60;1.00
3005;DHT22;1512;51.486;6.610;2023-04-15T05:12:42;7.70;1.00
3005;DHT22;1512;51.486;6.610;2023-04-15T05:16:51;7.60;1.00
3005;DHT22;1512;51.486;6.610;2023-04-15T05:20:59;7.60;1.00
3005;DHT22;1512;51.486;6.610;2023-04-15T05:25:08;7.60;1.00
3005;DHT22;1512;51.486;6.610;2023-04-15T05:29:17;7.70;1.00
3005;DHT22;1512;51.486;6.610;2023-04-15T05:33:26;7.70;1.00
3005;DHT22;1512;51.486;6.610;2023-04-15T05:37:34;7.70;1.00
3005;DHT22;1512;51.486;6.610;2023-04-15T05:41:43;7.70;1.00
3005;DHT22;1512;51.486;6.610;2023-04-15T05:45:55;7.70;1.00
3005;DHT22;1512;51.486;6.610;2023-04-15T05:50:13;7.70;1.00
3005;DHT22;1512;51.486;6.610;2023-04-15T05:54:22;7.50;1.00
3005;DHT22;1512;51.486;6.610;2023-04-15T05:58:31;7.50;1.00
3005;DHT22;1512;51.486;6.610;2023-04-15T06:02:40;7.50;1.00
3005;DHT22;1512;51.486;6.610;2023-04-15T06:06:49;7.50;1.00
3005;DHT22;1512;51.486;6.610;2023-04-15T06:10:58;7.60;1.00
3005;DHT22;1512;51.486;6.610;2023-04-15T06:15:07;7.60;1.00
3005;DHT22;1512;51.486;6.610;2023-04-15T06:19:17;7.70;1.00
3005;DHT22;1512;51.486;6.610;2023-04-15T06:23:26;7.80;1.00
3005;DHT22;1512;51.486;6.610;2023-04-15T06:27:54;7.90;1.00
3005;DHT22;1512;51.486;6.610;2023-04-15T06:32:03;8.00;1.00
3005;DHT22;1512;51.486;6.610;2023-04-15T06:36:12;8.00;1.00
3005;DHT22;1512;51.486;6.610;2023-04-15T06:40:27;8.20;1.00
3005;DHT22;1512;51.486;6.610;2023-04-15T06:44:35;8.20;1.00
3005;DHT22;1512;51.486;6.610;2023-04-15T06:48:46;8.30;1.00
3005;DHT22;1512;51.486;6.610;2023-04-15T06:52:55;8.40;1.00
3005;DHT22;1512;51.486;6.610;2023-04-15T06:57:08;8.60;1.00
3005;DHT22;1512;51.486;6.610;2023-04-15T07:01:17;8.60;1.00
3005;DHT22;1512;51.486;6.610;2023-04-15T07:05:30;8.80;1.00
3005;DHT22;1512;51.486;6.610;2023-04-15T07:09:39;8.90;1.00
3005;DHT22;1512;51.486;6.610;2023-04-15T07:13:48;9.00;1.00
3005;DHT22;1512;51.486;6.610;2023-04-15T07:17:58;9.10;1.00
3005;DHT22;1512;51.486;6.610;2023-04-15T07:22:07;9.30;1.00
3005;DHT22;1512;51.486;6.610;2023-04-15T07:26:19;9.40;1.00
3005;DHT22;1512;51.486;6.610;2023-04-15T07:30:29;9.50;1.00
3005;DHT22;1512;51.486;6.610;2023-04-15T07:34:39;9.60;1.00
3005;DHT22;1512;51.486;6.610;2023-04-15T07:38:48;9.90;1.00
3005;DHT22;1512;51.486;6.610;2023-04-15T07:42:57;10.00;1.00
3005;DHT22;1512;51.486;6.610;2023-04-15T07:47:10;10.20;1.00
3005;DHT22;1512;51.486;6.610;2023-04-15T07:51:22;10.30;1.00
3005;DHT22;1512;51.486;6.610;2023-04-15T07:55:33;10.50;1.00
3005;DHT22;1512;51.486;6.610;2023-04-15T07:59:42;10.60;1.00
3005;DHT22;1512;51.486;6.610;2023-04-15T08:03:51;10.70;1.00
3005;DHT22;1512;51.486;6.610;2023-04-15T08:08:00;10.60;1.00
3005;DHT22;1512;51.486;6.610;2023-04-15T08:12:08;10.70;1.00
3005;DHT22;1512;51.486;6.610;2023-04-15T08:20:51;10.70;1.00
3005;DHT22;1512;51.486;6.610;2023-04-15T08:25:00;10.90;1.00
3005;DHT22;1512;51.486;6.610;2023-04-15T08:29:08;10.90;1.00
3005;DHT22;1512;51.486;6.610;2023-04-15T08:33:17;11.00;1.00
3005;DHT22;1512;51.486;6.610;2023-04-15T08:37:27;11.10;1.00
3005;DHT22;1512;51.486;6.610;2023-04-15T08:46:03;11.40;1.00
3005;DHT22;1512;51.486;6.610;2023-04-15T08:50:14;11.50;99.90
3005;DHT22;1512;51.486;6.610;2023-04-15T08:54:24;11.40;1.00
3005;DHT22;1512;51.486;6.610;2023-04-15T08:58:35;11.40;99.90
3005;DHT22;1512;51.486;6.610;2023-04-15T09:02:43;11.60;99.90
3005;DHT22;1512;51.486;6.610;2023-04-15T09:06:53;11.70;99.90
3005;DHT22;1512;51.486;6.610;2023-04-15T09:11:02;12.00;99.90
3005;DHT22;1512;51.486;6.610;2023-04-15T09:15:11;12.00;1.00
3005;DHT22;1512;51.486;6.610;2023-04-15T09:19:21;12.00;99.90
3005;DHT22;1512;51.486;6.610;2023-04-15T09:23:31;11.90;99.90
3005;DHT22;1512;51.486;6.610;2023-04-15T09:27:49;11.90;99.90
3005;DHT22;1512;51.486;6.610;2023-04-15T09:32:12;12.00;99.90
3005;DHT22;1512;51.486;6.610;2023-04-15T09:36:23;12.00;99.90
3005;DHT22;1512;51.486;6.610;2023-04-15T09:40:40;12.10;99.90
3005;DHT22;1512;51.486;6.610;2023-04-15T09:44:49;12.40;99.90
3005;DHT22;1512;51.486;6.610;2023-04-15T09:49:07;12.60;99.90
3005;DHT22;1512;51.486;6.610;2023-04-15T09:53:19;12.50;99.90
3005;DHT22;1512;51.486;6.610;2023-04-15T09:57:36;12.30;99.90
3005;DHT22;1512;51.486;6.610;2023-04-15T10:01:45;12.40;99.90
3005;DHT22;1512;51.486;6.610;2023-04-15T10:05:56;12.50;99.90
3005;DHT22;1512;51.486;6.610;2023-04-15T10:10:06;12.70;99.90
3005;DHT22;1512;51.486;6.610;2023-04-15T10:14:15;12.90;99.90
3005;DHT22;1512;51.486;6.610;2023-04-15T10:18:27;12.90;99.90
3005;DHT22;1512;51.486;6.610;2023-04-15T10:22:37;13.00;99.90
3005;DHT22;1512;51.486;6.610;2023-04-15T10:26:46;13.10;99.90
3005;DHT22;1512;51.486;6.610;2023-04-15T10:30:56;13.30;99.90
3005;DHT22;1512;51.486;6.610;2023-04-15T10:35:06;13.40;99.90
3005;DHT22;1512;51.486;6.610;2023-04-15T10:43:56;13.70;99.90
3005;DHT22;1512;51.486;6.610;2023-04-15T10:48:07;13.30;99.90
3005;DHT22;1512;51.486;6.610;2023-04-15T10:56:32;13.80;99.90
3005;DHT22;1512;51.486;6.610;2023-04-15T11:00:43;13.90;99.90
3005;DHT22;1512;51.486;6.610;2023-04-15T11:05:00;13.60;99.90
3005;DHT22;1512;51.486;6.610;2023-04-15T11:09:04;13.30;99.90
3005;DHT22;1512;51.486;6.610;2023-04-15T11:13:16;13.20;99.90
3005;DHT22;1512;51.486;6.610;2023-04-15T11:17:28;13.30;99.90
3005;DHT22;1512;51.486;6.610;2023-04-15T11:21:40;13.20;99.90
3005;DHT22;1512;51.486;6.610;2023-04-15T11:25:49;13.00;99.90
3005;DHT22;1512;51.486;6.610;2023-04-15T11:29:58;12.80;99.90
3005;DHT22;1512;51.486;6.610;2023-04-15T11:34:06;12.60;99.90
3005;DHT22;1512;51.486;6.610;2023-04-15T11:38:15;12.40;99.90
3005;DHT22;1512;51.486;6.610;2023-04-15T11:42:25;12.40;99.90
3005;DHT22;1512;51.486;6.610;2023-04-15T11:46:36;12.40;99.90
3005;DHT22;1512;51.486;6.610;2023-04-15T11:50:45;12.50;99.90
3005;DHT22;1512;51.486;6.610;2023-04-15T11:55:01;12.60;99.90
3005;DHT22;1512;51.486;6.610;2023-04-15T11:59:05;12.50;99.90
3005;DHT22;1512;51.486;6.610;2023-04-15T12:03:35;12.50;99.90
3005;DHT22;1512;51.486;6.610;2023-04-15T12:07:58;12.50;99.90
3005;DHT22;1512;51.486;6.610;2023-04-15T12:12:07;12.50;99.90
3005;DHT22;1512;51.486;6.610;2023-04-15T12:16:18;12.50;99.90
3005;DHT22;1512;51.486;6.610;2023-04-15T12:20:27;12.50;99.90
3005;DHT22;1512;51.486;6.610;2023-04-15T12:24:39;12.50;99.90
3005;DHT22;1512;51.486;6.610;2023-04-15T12:28:47;12.60;99.90
3005;DHT22;1512;51.486;6.610;2023-04-15T12:32:57;12.60;99.90
3005;DHT22;1512;51.486;6.610;2023-04-15T12:37:09;12.40;99.90
3005;DHT22;1512;51.486;6.610;2023-04-15T12:41:19;12.30;1.00
3005;DHT22;1512;51.486;6.610;2023-04-15T12:45:29;12.20;1.00
3005;DHT22;1512;51.486;6.610;2023-04-15T12:49:39;12.30;1.00
3005;DHT22;1512;51.486;6.610;2023-04-15T12:53:48;12.30;1.00
3005;DHT22;1512;51.486;6.610;2023-04-15T12:57:57;12.30;1.00
3005;DHT22;1512;51.486;6.610;2023-04-15T13:02:05;12.10;1.00
3005;DHT22;1512;51.486;6.610;2023-04-15T13:06:34;12.00;1.00
3005;DHT22;1512;51.486;6.610;2023-04-15T13:10:43;12.20;1.00
3005;DHT22;1512;51.486;6.610;2023-04-15T13:14:52;12.20;1.00
3005;DHT22;1512;51.486;6.610;2023-04-15T13:19:01;12.50;1.00
3005;DHT22;1512;51.486;6.610;2023-04-15T13:23:11;12.50;1.00
3005;DHT22;1512;51.486;6.610;2023-04-15T13:27:20;12.60;1.00
3005;DHT22;1512;51.486;6.610;2023-04-15T13:31:29;12.60;1.00
3005;DHT22;1512;51.486;6.610;2023-04-15T13:35:39;12.80;99.90
3005;DHT22;1512;51.486;6.610;2023-04-15T13:39:48;12.70;99.90
3005;DHT22;1512;51.486;6.610;2023-04-15T13:43:57;12.50;99.90
3005;DHT22;1512;51.486;6.610;2023-04-15T13:48:07;12.50;99.90
3005;DHT22;1512;51.486;6.610;2023-04-15T13:52:16;12.20;1.00
3005;DHT22;1512;51.486;6.610;2023-04-15T13:56:25;12.00;1.00
3005;DHT22;1512;51.486;6.610;2023-04-15T14:00:36;11.90;1.00
3005;DHT22;1512;51.486;6.610;2023-04-15T14:04:46;11.90;1.00
3005;DHT22;1512;51.486;6.610;2023-04-15T14:08:54;11.80;1.00
3005;DHT22;1512;51.486;6.610;2023-04-15T14:13:03;11.90;1.00
3005;DHT22;1512;51.486;6.610;2023-04-15T14:17:12;11.90;1.00
3005;DHT22;1512;51.486;6.610;2023-04-15T14:21:20;11.80;1.00
3005;DHT22;1512;51.486;6.610;2023-04-15T14:25:29;11.80;1.00
3005;DHT22;1512;51.486;6.610;2023-04-15T14:29:39;11.60;1.00
3005;DHT22;1512;51.486;6.610;2023-04-15T14:33:48;11.70;1.00
3005;DHT22;1512;51.486;6.610;2023-04-15T14:37:58;11.60;1.00
3005;DHT22;1512;51.486;6.610;2023-04-15T14:42:06;11.60;1.00
3005;DHT22;1512;51.486;6.610;2023-04-15T14:46:15;11.60;1.00
3005;DHT22;1512;51.486;6.610;2023-04-15T14:50:24;11.60;1.00
3005;DHT22;1512;51.486;6.610;2023-04-15T14:54:33;11.60;1.00
3005;DHT22;1512;51.486;6.610;2023-04-15T14:58:42;11.70;1.00
3005;DHT22;1512;51.486;6.610;2023-04-15T15:02:50;11.70;1.00
3005;DHT22;1512;51.486;6.610;2023-04-15T15:06:59;11.70;1.00
3005;DHT22;1512;51.486;6.610;2023-04-15T15:11:08;11.60;1.00
3005;DHT22;1512;51.486;6.610;2023-04-15T15:15:16;11.50;1.00
3005;DHT22;1512;51.486;6.610;2023-04-15T15:19:27;11.60;1.00
3005;DHT22;1512;51.486;6.610;2023-04-15T15:23:35;11.60;1.00
3005;DHT22;1512;51.486;6.610;2023-04-15T15:27:44;11.50;1.00
3005;DHT22;1512;51.486;6.610;2023-04-15T15:31:53;11.50;1.00
3005;DHT22;1512;51.486;6.610;2023-04-15T15:36:02;11.50;1.00
3005;DHT22;1512;51.486;6.610;2023-04-15T15:40:11;11.40;1.00
3005;DHT22;1512;51.486;6.610;2023-04-15T15:44:20;11.50;1.00
3005;DHT22;1512;51.486;6.610;2023-04-15T15:48:29;11.40;1.00
3005;DHT22;1512;51.486;6.610;2023-04-15T15:52:37;11.40;1.00
3005;DHT22;1512;51.486;6.610;2023-04-15T15:56:46;11.30;1.00
3005;DHT22;1512;51.486;6.610;2023-04-15T16:00:57;11.20;1.00
3005;DHT22;1512;51.486;6.610;2023-04-15T16:05:08;11.20;1.00
3005;DHT22;1512;51.486;6.610;2023-04-15T16:09:17;11.00;1.00
3005;DHT22;1512;51.486;6.610;2023-04-15T16:13:27;11.20;1.00
3005;DHT22;1512;51.486;6.610;2023-04-15T16:17:35;11.10;1.00
3005;DHT22;1512;51.486;6.610;2023-04-15T16:21:44;11.00;1.00
3005;DHT22;1512;51.486;6.610;2023-04-15T16:25:53;11.10;1.00
3005;DHT22;1512;51.486;6.610;2023-04-15T16:30:02;11.00;1.00
3005;DHT22;1512;51.486;6.610;2023-04-15T16:34:13;10.90;1.00
3005;DHT22;1512;51.486;6.610;2023-04-15T16:38:22;10.80;1.00
3005;DHT22;1512;51.486;6.610;2023-04-15T16:42:31;10.70;1.00
3005;DHT22;1512;51.486;6.610;2023-04-15T16:46:39;10.60;1.00
3005;DHT22;1512;51.486;6.610;2023-04-15T16:50:50;10.40;1.00
3005;DHT22;1512;51.486;6.610;2023-04-15T16:54:58;10.30;1.00
3005;DHT22;1512;51.486;6.610;2023-04-15T16:59:07;10.30;1.00
3005;DHT22;1512;51.486;6.610;2023-04-15T17:03:15;10.20;1.00
3005;DHT22;1512;51.486;6.610;2023-04-15T17:07:24;10.20;1.00
3005;DHT22;1512;51.486;6.610;2023-04-15T17:11:33;10.30;1.00
3005;DHT22;1512;51.486;6.610;2023-04-15T17:15:42;10.30;1.00
3005;DHT22;1512;51.486;6.610;2023-04-15T17:19:50;10.20;1.00
3005;DHT22;1512;51.486;6.610;2023-04-15T17:23:59;10.10;1.00
3005;DHT22;1512;51.486;6.610;2023-04-15T17:28:08;10.30;1.00
3005;DHT22;1512;51.486;6.610;2023-04-15T17:32:16;10.30;1.00
3005;DHT22;1512;51.486;6.610;2023-04-15T17:36:25;10.10;1.00
3005;DHT22;1512;51.486;6.610;2023-04-15T17:40:34;10.20;1.00
3005;DHT22;1512;51.486;6.610;2023-04-15T17:44:44;10.10;1.00
3005;DHT22;1512;51.486;6.610;2023-04-15T17:48:52;10.00;1.00
3005;DHT22;1512;51.486;6.610;2023-04-15T17:53:01;10.20;1.00
3005;DHT22;1512;51.486;6.610;2023-04-15T17:57:10;10.00;1.00
3005;DHT22;1512;51.486;6.610;2023-04-15T18:01:19;10.00;1.00
3005;DHT22;1512;51.486;6.610;2023-04-15T18:05:29;10.00;1.00
3005;DHT22;1512;51.486;6.610;2023-04-15T18:09:37;10.00;1.00
3005;DHT22;1512;51.486;6.610;2023-04-15T18:13:46;9.90;1.00
3005;DHT22;1512;51.486;6.610;2023-04-15T18:17:55;9.90;1.00
3005;DHT22;1512;51.486;6.610;2023-04-15T18:22:04;9.80;1.00
3005;DHT22;1512;51.486;6.610;2023-04-15T18:26:13;9.80;1.00
3005;DHT22;1512;51.486;6.610;2023-04-15T18:30:22;9.80;1.00
3005;DHT22;1512;51.486;6.610;2023-04-15T18:34:30;9.70;1.00
3005;DHT22;1512;51.486;6.610;2023-04-15T18:38:39;9.80;1.00
3005;DHT22;1512;51.486;6.610;2023-04-15T18:42:49;9.70;1.00
3005;DHT22;1512;51.486;6.610;2023-04-15T18:46:59;9.60;1.00
3005;DHT22;1512;51.486;6.610;2023-04-15T18:51:08;9.60;1.00
3005;DHT22;1512;51.486;6.610;2023-04-15T18:55:17;9.60;1.00
3005;DHT22;1512;51.486;6.610;2023-04-15T18:59:26;9.70;1.00
3005;DHT22;1512;51.486;6.610;2023-04-15T19:03:37;9.70;1.00
3005;DHT22;1512;51.486;6.610;2023-04-15T19:07:48;9.50;1.00
3005;DHT22;1512;51.486;6.610;2023-04-15T19:11:57;9.70;1.00
3005;DHT22;1512;51.486;6.610;2023-04-15T19:16:06;9.60;1.00
3005;DHT22;1512;51.486;6.610;2023-04-15T19:20:15;9.40;25.40
3005;DHT22;1512;51.486;6.610;2023-04-15T19:24:25;9.40;70.90
3005;DHT22;1512;51.486;6.610;2023-04-15T19:28:33;9.40;67.20
3005;DHT22;1512;51.486;6.610;2023-04-15T19:32:42;9.40;74.00
3005;DHT22;1512;51.486;6.610;2023-04-15T19:36:51;9.40;99.90
3005;DHT22;1512;51.486;6.610;2023-04-15T19:41:00;9.50;99.90
3005;DHT22;1512;51.486;6.610;2023-04-15T19:45:28;9.40;99.90
3005;DHT22;1512;51.486;6.610;2023-04-15T19:49:37;9.20;99.90
3005;DHT22;1512;51.486;6.610;2023-04-15T19:53:45;9.40;99.90
3005;DHT22;1512;51.486;6.610;2023-04-15T19:57:56;9.30;99.90
3005;DHT22;1512;51.486;6.610;2023-04-15T20:02:05;9.20;99.90
3005;DHT22;1512;51.486;6.610;2023-04-15T20:06:15;9.20;99.90
3005;DHT22;1512;51.486;6.610;2023-04-15T20:10:24;9.20;1.00
3005;DHT22;1512;51.486;6.610;2023-04-15T20:14:33;9.10;1.00
3005;DHT22;1512;51.486;6.610;2023-04-15T20:18:42;9.20;1.00
3005;DHT22;1512;51.486;6.610;2023-04-15T20:22:51;9.00;1.00
3005;DHT22;1512;51.486;6.610;2023-04-15T20:27:00;9.00;1.00
3005;DHT22;1512;51.486;6.610;2023-04-15T20:31:08;9.00;1.00
3005;DHT22;1512;51.486;6.610;2023-04-15T20:35:17;9.10;1.00
3005;DHT22;1512;51.486;6.610;2023-04-15T20:39:26;9.20;1.00
3005;DHT22;1512;51.486;6.610;2023-04-15T20:43:36;9.10;1.00
3005;DHT22;1512;51.486;6.610;2023-04-15T20:47:45;9.10;1.00
3005;DHT22;1512;51.486;6.610;2023-04-15T20:51:53;8.90;1.00
3005;DHT22;1512;51.486;6.610;2023-04-15T20:56:03;9.00;1.00
3005;DHT22;1512;51.486;6.610;2023-04-15T21:00:12;9.10;1.00
3005;DHT22;1512;51.486;6.610;2023-04-15T21:04:21;9.00;1.00
3005;DHT22;1512;51.486;6.610;2023-04-15T21:08:31;8.90;99.90
3005;DHT22;1512;51.486;6.610;2023-04-15T21:12:40;9.00;1.00
3005;DHT22;1512;51.486;6.610;2023-04-15T21:16:50;8.90;99.90
3005;DHT22;1512;51.486;6.610;2023-04-15T21:21:00;9.00;99.90
3005;DHT22;1512;51.486;6.610;2023-04-15T21:25:09;9.00;99.90
3005;DHT22;1512;51.486;6.610;2023-04-15T21:29:18;9.00;99.90
3005;DHT22;1512;51.486;6.610;2023-04-15T21:33:27;9.00;99.90
3005;DHT22;1512;51.486;6.610;2023-04-15T21:37:35;9.10;92.80
3005;DHT22;1512;51.486;6.610;2023-04-15T21:41:44;9.10;1.00
3005;DHT22;1512;51.486;6.610;2023-04-15T21:45:53;9.00;1.00
3005;DHT22;1512;51.486;6.610;2023-04-15T21:50:04;9.00;1.00
3005;DHT22;1512;51.486;6.610;2023-04-15T21:54:13;9.00;99.90
3005;DHT22;1512;51.486;6.610;2023-04-15T21:58:21;8.90;99.90
3005;DHT22;1512;51.486;6.610;2023-04-15T22:02:30;9.00;99.90
3005;DHT22;1512;51.486;6.610;2023-04-15T22:06:39;8.90;99.90
3005;DHT22;1512;51.486;6.610;2023-04-15T22:10:48;8.90;99.90
3005;DHT22;1512;51.486;6.610;2023-04-15T22:14:57;8.90;1.00
3005;DHT22;1512;51.486;6.610;2023-04-15T22:19:05;8.90;99.90
3005;DHT22;1512;51.486;6.610;2023-04-15T22:23:15;8.90;1.00
3005;DHT22;1512;51.486;6.610;2023-04-15T22:27:26;9.00;1.00
3005;DHT22;1512;51.486;6.610;2023-04-15T22:31:35;9.00;99.90
3005;DHT22;1512;51.486;6.610;2023-04-15T22:35:44;8.90;1.00
3005;DHT22;1512;51.486;6.610;2023-04-15T22:39:52;8.90;1.00
3005;DHT22;1512;51.486;6.610;2023-04-15T22:44:01;9.00;1.00
3005;DHT22;1512;51.486;6.610;2023-04-15T22:48:10;8.90;1.00
3005;DHT22;1512;51.486;6.610;2023-04-15T22:52:18;8.90;1.00
3005;DHT22;1512;51.486;6.610;2023-04-15T22:56:31;9.00;1.00
3005;DHT22;1512;51.486;6.610;2023-04-15T23:00:41;8.90;1.00
3005;DHT22;1512;51.486;6.610;2023-04-15T23:04:51;8.80;1.00
3005;DHT22;1512;51.486;6.610;2023-04-15T23:09:00;8.90;1.00
3005;DHT22;1512;51.486;6.610;2023-04-15T23:13:12;8.90;1.00
3005;DHT22;1512;51.486;6.610;2023-04-15T23:17:24;8.80;99.90
3005;DHT22;1512;51.486;6.610;2023-04-15T23:21:33;8.90;21.50
3005;DHT22;1512;51.486;6.610;2023-04-15T23:25:45;8.90;99.90
3005;DHT22;1512;51.486;6.610;2023-04-15T23:29:59;8.80;1.00
3005;DHT22;1512;51.486;6.610;2023-04-15T23:34:08;8.80;99.90
3005;DHT22;1512;51.486;6.610;2023-04-15T23:38:18;9.00;1.00
3005;DHT22;1512;51.486;6.610;2023-04-15T23:42:32;9.00;1.00
3005;DHT22;1512;51.486;6.610;2023-04-15T23:46:42;9.00;1.00
3005;DHT22;1512;51.486;6.610;2023-04-15T23:50:51;8.90;99.90
3005;DHT22;1512;51.486;6.610;2023-04-15T23:55:01;8.90;97.60
3005;DHT22;1512;51.486;6.610;2023-04-15T23:59:13;8.90;99.90
